Time;durP1;ratioP1;P1;durP2;ratioP2;P2;SDS_P1;SDS_P2;PMS_P1;PMS_P2;Temp;Humidity;BMP_temperature;BMP_pressure;BME280_temperature;BME280_humidity;BME280_pressure;Samples;Min_cycle;Max_cycle;Signal;HPM_P1;HPM_P2
2021/12/10 00:02:04;;;;;;;132.07;58.35;;;;;;;-0.91;91.18;96727.91;1803906;78;21520;-58
2021/12/10 00:04:33;;;;;;;138.00;57.23;;;;;;;-0.89;91.29;96723.67;1799736;78;20997;-58
2021/12/10 00:07:04;;;;;;;135.40;58.10;;;;;;;-0.87;91.04;96720.24;1795361;78;21004;-58
2021/12/10 00:09:38;;;;;;;128.38;55.00;;;;;;;-0.84;90.77;96713.66;1839362;78;21034;-58
2021/12/10 00:12:16;;;;;;;128.05;55.75;;;;;;;-0.90;90.63;96705.58;1840102;78;46066;-57
2021/12/10 00:14:42;;;;;;;133.30;58.05;;;;;;;-0.89;90.77;96715.69;1809603;77;21597;-57
2021/12/10 00:17:10;;;;;;;139.03;59.08;;;;;;;-0.87;90.60;96717.06;1796150;78;20992;-57
2021/12/10 00:19:45;;;;;;;134.25;58.55;;;;;;;-0.93;90.40;96710.58;1840352;78;21491;-57
2021/12/10 00:22:13;;;;;;;157.30;71.45;;;;;;;-0.98;90.61;96709.14;1810062;78;20988;-57
2021/12/10 00:24:40;;;;;;;147.37;63.00;;;;;;;-0.98;91.72;96705.16;1840415;78;20970;-57
2021/12/10 00:27:07;;;;;;;141.45;60.00;;;;;;;-0.97;92.24;96712.89;1840593;78;21843;-57
2021/12/10 00:29:36;;;;;;;125.02;53.38;;;;;;;-0.95;91.46;96717.97;1840366;77;21020;-57
2021/12/10 00:32:08;;;;;;;132.67;57.70;;;;;;;-0.95;91.12;96713.97;1840392;78;24978;-57
2021/12/10 00:34:47;;;;;;;136.12;55.63;;;;;;;-0.95;91.51;96703.34;1840371;78;20994;-57
2021/12/10 00:37:15;;;;;;;131.75;57.03;;;;;;;-0.98;92.68;96703.30;1743250;80;21071;-57
2021/12/10 00:39:52;;;;;;;142.45;57.20;;;;;;;-0.96;92.12;96711.84;1807729;78;25848;-57
2021/12/10 00:42:23;;;;;;;131.60;56.42;;;;;;;-0.98;91.83;96712.61;1809241;78;20958;-57
2021/12/10 00:44:49;;;;;;;130.35;56.28;;;;;;;-0.96;91.59;96708.37;1840355;78;21034;-57
2021/12/10 00:47:15;;;;;;;152.65;62.90;;;;;;;-0.94;91.67;96700.96;1810800;77;20813;-57
2021/12/10 00:49:41;;;;;;;132.35;51.55;;;;;;;-0.91;91.81;96713.28;1768701;81;21209;-57
2021/12/10 00:52:08;;;;;;;143.62;59.58;;;;;;;-0.89;91.53;96719.68;1839123;77;21381;-57
2021/12/10 00:54:35;;;;;;;132.67;60.25;;;;;;;-0.86;91.36;96721.33;1802333;79;21012;-57
2021/12/10 00:57:01;;;;;;;139.05;62.73;;;;;;;-0.83;91.59;96713.94;1801919;79;20995;-58
2021/12/10 00:59:27;;;;;;;151.68;64.85;;;;;;;-0.82;91.66;96720.88;1840183;78;21167;-58
2021/12/10 01:01:53;;;;;;;142.80;60.15;;;;;;;-0.87;92.05;96727.70;1840523;78;21020;-57
2021/12/10 01:04:27;;;;;;;140.05;61.65;;;;;;;-0.86;91.98;96733.83;1823671;77;21540;-57
2021/12/10 01:06:56;;;;;;;146.65;58.63;;;;;;;-0.89;92.27;96721.81;1811257;78;20976;-57
2021/12/10 01:09:28;;;;;;;138.35;59.53;;;;;;;-0.89;92.20;96719.16;1807669;79;20998;-57
2021/12/10 01:12:08;;;;;;;157.18;62.93;;;;;;;-0.86;91.93;96727.17;1807364;78;20993;-57
2021/12/10 01:14:59;;;;;;;141.07;57.65;;;;;;;-0.86;92.02;96723.98;1796381;78;21584;-57
2021/12/10 01:26:07;;;;;;;127.70;56.02;;;;;;;-0.81;91.11;96721.95;1771591;80;20955;-57
2021/12/10 01:27:54;;;;;;;117.37;51.58;;;;;;;-0.79;91.11;96727.03;1751787;81;21557;-57
2021/12/10 01:30:25;;;;;;;133.72;53.87;;;;;;;-0.83;90.99;96728.05;1772184;80;21444;-57
2021/12/10 01:33:00;;;;;;;136.18;55.60;;;;;;;-0.82;91.02;96734.98;1771937;81;21066;-58
2021/12/10 01:35:34;;;;;;;134.50;57.95;;;;;;;-0.82;91.03;96728.85;1786948;79;20961;-57
2021/12/10 01:38:00;;;;;;;123.82;50.38;;;;;;;-0.80;91.07;96726.23;1840345;78;21060;-57
2021/12/10 01:40:27;;;;;;;132.35;54.60;;;;;;;-0.77;91.07;96728.92;1837478;78;21040;-58
2021/12/10 01:43:00;;;;;;;137.77;59.30;;;;;;;-0.78;91.18;96729.45;1761346;81;21558;-57
2021/12/10 01:45:26;;;;;;;120.67;49.50;;;;;;;-0.78;91.18;96725.46;1754317;81;21007;-58
2021/12/10 01:48:06;;;;;;;144.22;60.40;;;;;;;-0.76;90.91;96726.58;1804923;79;21003;-58
2021/12/10 01:50:33;;;;;;;129.18;52.95;;;;;;;-0.76;90.97;96731.37;1799683;79;21042;-58
2021/12/10 01:53:01;;;;;;;125.35;54.18;;;;;;;-0.76;90.83;96726.58;1799536;79;21474;-57
2021/12/10 01:55:28;;;;;;;124.58;51.75;;;;;;;-0.77;90.88;96728.44;1799481;79;21505;-57
2021/12/10 01:57:54;;;;;;;115.12;45.52;;;;;;;-0.74;90.77;96729.27;1799579;79;21034;-57
2021/12/10 02:00:23;;;;;;;129.90;48.90;;;;;;;-0.85;90.54;96726.16;1808340;78;21058;-57
2021/12/10 02:02:50;;;;;;;126.53;49.42;;;;;;;-0.87;90.75;96720.24;1818123;78;21030;-57
2021/12/10 02:05:17;;;;;;;123.40;51.90;;;;;;;-0.86;90.83;96722.66;1840721;77;20989;-57
2021/12/10 02:07:42;;;;;;;124.18;52.78;;;;;;;-0.83;90.87;96720.06;1833014;78;21533;-57
2021/12/10 02:10:09;;;;;;;129.87;53.45;;;;;;;-0.82;90.88;96727.52;1809977;79;20899;-58
2021/12/10 02:12:35;;;;;;;117.08;50.85;;;;;;;-0.83;91.11;96718.73;1813021;78;21453;-57
2021/12/10 02:15:03;;;;;;;113.65;48.63;;;;;;;-0.83;91.21;96713.42;1753898;81;20901;-57
2021/12/10 02:17:34;;;;;;;129.15;55.23;;;;;;;-0.82;91.40;96716.88;1750307;81;21119;-58
2021/12/10 02:20:05;;;;;;;125.00;52.08;;;;;;;-0.84;91.49;96710.48;1768879;80;21957;-57
2021/12/10 02:22:31;;;;;;;124.62;50.23;;;;;;;-0.84;91.13;96693.19;1832083;78;21021;-57
2021/12/10 02:24:57;;;;;;;110.97;51.23;;;;;;;-0.86;91.42;96690.74;1806158;79;20830;-58
2021/12/10 02:27:23;;;;;;;116.95;51.63;;;;;;;-0.87;90.96;96692.31;1809919;78;21035;-57
2021/12/10 02:29:48;;;;;;;123.45;49.25;;;;;;;-0.89;90.92;96677.13;1838030;78;20929;-58
2021/12/10 02:32:14;;;;;;;129.35;52.25;;;;;;;-0.91;90.87;96675.23;1837658;77;21264;-57
2021/12/10 02:34:42;;;;;;;121.70;53.65;;;;;;;-0.88;91.03;96675.55;1769975;81;21673;-57
2021/12/10 02:37:08;;;;;;;117.33;49.20;;;;;;;-0.84;91.06;96674.57;1739817;80;21041;-58
2021/12/10 02:39:34;;;;;;;138.10;59.03;;;;;;;-0.81;90.96;96666.09;1748920;81;20838;-57
2021/12/10 02:42:00;;;;;;;132.40;56.13;;;;;;;-0.77;90.91;96660.59;1765109;79;20940;-57
2021/12/10 02:44:28;;;;;;;126.80;55.12;;;;;;;-0.72;90.87;96670.50;1787972;79;21046;-57
2021/12/10 02:47:00;;;;;;;129.95;54.83;;;;;;;-0.67;90.95;96676.73;1821621;78;21654;-58
2021/12/10 02:49:28;;;;;;;112.20;49.45;;;;;;;-0.62;90.98;96681.31;1805445;78;21080;-57
2021/12/10 02:51:55;;;;;;;91.37;42.07;;;;;;;-0.64;91.21;96682.89;1805891;78;21553;-58
2021/12/10 02:54:31;;;;;;;122.90;52.83;;;;;;;-0.74;91.25;96676.07;1834373;78;21076;-58
2021/12/10 02:56:50;;;;;;;108.60;50.33;;;;;;;-0.70;91.44;96669.20;1818216;78;22228;-57
2021/12/10 02:59:16;;;;;;;119.85;48.10;;;;;;;-0.64;91.64;96666.92;1805387;79;21516;-58
2021/12/10 03:01:48;;;;;;;108.35;48.28;;;;;;;-0.62;91.54;96671.47;1805722;79;21014;-57
2021/12/10 03:04:14;;;;;;;108.00;46.80;;;;;;;-0.61;91.42;96666.95;1810748;78;21079;-58
2021/12/10 03:06:49;;;;;;;109.85;49.55;;;;;;;-0.57;91.46;96662.78;1807972;79;20976;-57
2021/12/10 03:09:17;;;;;;;112.45;50.20;;;;;;;-0.55;91.52;96664.67;1804859;78;22127;-58
2021/12/10 03:11:48;;;;;;;129.18;51.98;;;;;;;-0.53;91.44;96671.08;1805386;78;21116;-58
2021/12/10 03:14:12;;;;;;;128.72;51.90;;;;;;;-0.60;91.28;96664.08;1803188;78;21048;-57
2021/12/10 03:16:39;;;;;;;110.25;48.33;;;;;;;-0.64;91.25;96673.58;1799596;78;21033;-57
2021/12/10 03:19:05;;;;;;;109.78;46.55;;;;;;;-0.62;91.40;96675.98;1806997;78;20991;-59
2021/12/10 03:21:31;;;;;;;109.63;48.15;;;;;;;-0.56;91.53;96673.70;1805251;79;21484;-59
2021/12/10 03:23:57;;;;;;;108.35;48.78;;;;;;;-0.49;91.67;96675.69;1805435;79;21069;-59
2021/12/10 03:26:23;;;;;;;109.65;49.55;;;;;;;-0.43;91.69;96672.03;1805656;79;20855;-58
2021/12/10 03:28:51;;;;;;;111.17;47.08;;;;;;;-0.45;91.15;96674.66;1829152;78;21036;-58
2021/12/10 03:31:17;;;;;;;116.62;48.75;;;;;;;-0.43;91.30;96690.66;1838574;77;21093;-58
2021/12/10 03:33:44;;;;;;;106.58;48.68;;;;;;;-0.45;91.11;96688.78;1769605;80;22128;-57
2021/12/10 03:36:10;;;;;;;114.67;44.13;;;;;;;-0.48;91.08;96695.12;1697392;82;21211;-57
2021/12/10 03:38:37;;;;;;;113.32;50.10;;;;;;;-0.50;91.14;96704.68;1771404;80;21641;-57
2021/12/10 03:41:03;;;;;;;124.97;55.85;;;;;;;-0.56;91.09;96704.30;1744574;80;21552;-57
2021/12/10 03:43:29;;;;;;;122.82;52.93;;;;;;;-0.58;91.19;96700.56;1731334;81;21110;-58
2021/12/10 03:45:57;;;;;;;132.63;57.35;;;;;;;-0.63;91.18;96701.79;1749850;79;21561;-57
2021/12/10 03:48:30;;;;;;;126.90;54.93;;;;;;;-0.60;91.20;96701.83;1754141;81;21122;-58
2021/12/10 03:50:56;;;;;;;122.22;53.58;;;;;;;-0.60;91.20;96692.52;1815488;78;20970;-57
2021/12/10 03:53:22;;;;;;;103.53;48.68;;;;;;;-0.55;91.35;96695.27;1769680;81;21899;-58
2021/12/10 03:55:48;;;;;;;116.88;51.40;;;;;;;-0.48;91.44;96696.45;1760179;80;20890;-58
2021/12/10 03:58:15;;;;;;;108.67;52.15;;;;;;;-0.43;91.54;96696.52;1782302;78;21296;-58
2021/12/10 04:00:49;;;;;;;123.90;53.63;;;;;;;-0.36;91.65;96695.31;1788533;79;21029;-57
2021/12/10 04:03:18;;;;;;;121.82;54.50;;;;;;;-0.36;91.34;96695.31;1791611;78;21127;-58
2021/12/10 04:05:44;;;;;;;112.85;50.73;;;;;;;-0.36;91.21;96697.97;1746418;80;21023;-57
2021/12/10 04:08:10;;;;;;;103.70;46.33;;;;;;;-0.34;91.24;96695.09;1732113;81;21143;-57
2021/12/10 04:10:37;;;;;;;114.90;50.05;;;;;;;-0.34;91.17;96707.08;1761293;79;21121;-57
2021/12/10 04:13:03;;;;;;;103.22;46.20;;;;;;;-0.32;91.14;96702.30;1812845;78;21014;-57
2021/12/10 04:15:28;;;;;;;104.55;50.23;;;;;;;-0.31;91.33;96702.06;1804508;78;22016;-58
2021/12/10 04:17:55;;;;;;;111.12;49.90;;;;;;;-0.26;91.22;96705.30;1829146;77;21051;-57
2021/12/10 04:20:23;;;;;;;98.92;45.70;;;;;;;-0.29;90.87;96709.80;1838050;77;21072;-57
2021/12/10 04:22:49;;;;;;;115.97;51.02;;;;;;;-0.35;90.55;96714.75;1838657;78;21950;-58
2021/12/10 04:25:17;;;;;;;107.85;51.13;;;;;;;-0.39;90.53;96704.31;1769918;81;21041;-57
2021/12/10 04:27:43;;;;;;;125.62;50.28;;;;;;;-0.41;90.77;96705.89;1829558;78;21068;-58
2021/12/10 04:30:12;;;;;;;110.60;48.25;;;;;;;-0.40;90.85;96712.83;1805159;79;21021;-58
2021/12/10 04:32:37;;;;;;;117.73;49.07;;;;;;;-0.39;90.85;96710.97;1812034;78;20980;-58
2021/12/10 04:35:04;;;;;;;107.87;48.20;;;;;;;-0.42;90.79;96706.14;1755347;79;21412;-57
2021/12/10 04:37:30;;;;;;;109.80;46.10;;;;;;;-0.49;90.56;96704.96;1764483;79;21532;-58
2021/12/10 04:39:56;;;;;;;111.52;49.85;;;;;;;-0.53;90.56;96699.82;1805777;78;20879;-58
2021/12/10 04:42:23;;;;;;;110.22;50.98;;;;;;;-0.51;90.58;96710.22;1829556;78;20886;-58
2021/12/10 04:44:54;;;;;;;114.70;50.40;;;;;;;-0.51;90.65;96715.05;1810790;79;21071;-58
2021/12/10 04:47:20;;;;;;;104.60;49.88;;;;;;;-0.47;90.79;96710.84;1736771;78;21135;-58
2021/12/10 04:49:46;;;;;;;103.47;44.80;;;;;;;-0.46;90.72;96709.79;1769262;81;20981;-58
2021/12/10 04:52:12;;;;;;;125.02;53.08;;;;;;;-0.47;90.58;96710.84;1769785;80;20890;-58
2021/12/10 04:54:38;;;;;;;107.12;49.70;;;;;;;-0.52;90.51;96725.38;1838233;78;21620;-59
2021/12/10 04:57:04;;;;;;;120.82;51.77;;;;;;;-0.56;90.46;96724.26;1770046;81;21065;-58
2021/12/10 04:59:33;;;;;;;117.55;51.35;;;;;;;-0.60;90.44;96715.96;1769167;80;21150;-58
2021/12/10 05:02:00;;;;;;;126.42;53.92;;;;;;;-0.67;90.28;96714.50;1769988;81;21100;-58
2021/12/10 05:04:27;;;;;;;134.80;59.85;;;;;;;-0.70;90.46;96720.28;1740431;80;21004;-59
2021/12/10 05:06:53;;;;;;;124.82;57.00;;;;;;;-0.71;90.45;96719.47;1745084;81;21043;-58
2021/12/10 05:09:20;;;;;;;122.33;57.25;;;;;;;-0.78;90.14;96725.46;1833289;78;20859;-58
2021/12/10 05:11:46;;;;;;;125.50;59.42;;;;;;;-0.85;90.06;96726.16;1769854;80;21138;-58
2021/12/10 05:14:12;;;;;;;137.75;60.28;;;;;;;-0.90;90.20;96726.86;1763626;81;20963;-58
2021/12/10 05:16:43;;;;;;;135.18;60.73;;;;;;;-0.89;90.25;96724.48;1814639;77;20941;-58
2021/12/10 05:19:09;;;;;;;124.90;52.23;;;;;;;-0.90;90.22;96729.52;1808835;77;22431;-58
2021/12/10 05:21:35;;;;;;;127.97;54.77;;;;;;;-0.93;90.31;96727.34;1808944;78;21466;-58
2021/12/10 05:24:01;;;;;;;123.07;56.88;;;;;;;-0.98;90.24;96719.78;1806926;78;21141;-59
2021/12/10 05:26:27;;;;;;;143.80;62.58;;;;;;;-0.99;90.32;96719.50;1793261;79;21497;-58
2021/12/10 05:28:53;;;;;;;147.85;61.42;;;;;;;-0.97;90.44;96716.87;1820899;78;20879;-57
2021/12/10 05:31:19;;;;;;;132.65;61.68;;;;;;;-0.88;90.74;96720.77;1838599;77;22785;-58
2021/12/10 05:33:45;;;;;;;144.82;69.03;;;;;;;-0.87;90.51;96718.39;1793740;78;20854;-58
2021/12/10 05:36:11;;;;;;;147.37;68.28;;;;;;;-0.89;90.43;96716.50;1775414;79;21634;-58
2021/12/10 05:38:37;;;;;;;142.90;64.87;;;;;;;-0.99;90.36;96712.33;1761322;79;20931;-58
2021/12/10 05:41:05;;;;;;;115.20;55.43;;;;;;;-1.02;90.90;96716.80;1779797;78;20873;-59
2021/12/10 05:43:35;;;;;;;129.47;58.73;;;;;;;-1.02;90.65;96703.50;1828128;78;21123;-58
2021/12/10 05:46:01;;;;;;;146.00;55.90;;;;;;;-0.97;90.68;96704.11;1838791;78;21084;-58
2021/12/10 05:48:28;;;;;;;138.45;63.65;;;;;;;-0.93;90.63;96708.73;1838326;78;21052;-58
2021/12/10 05:50:54;;;;;;;154.38;66.10;;;;;;;-0.95;90.67;96706.80;1755479;80;21087;-58
2021/12/10 05:53:20;;;;;;;163.75;70.95;;;;;;;-0.91;90.69;96701.31;1751942;79;21025;-58
2021/12/10 05:55:46;;;;;;;163.28;67.72;;;;;;;-0.82;90.83;96695.60;1799462;79;21621;-59
2021/12/10 05:58:12;;;;;;;164.10;73.25;;;;;;;-0.88;90.77;96695.50;1779536;78;20897;-58
2021/12/10 06:00:45;;;;;;;161.97;74.12;;;;;;;-0.88;91.07;96710.13;1809339;76;21963;-58
2021/12/10 06:03:11;;;;;;;151.07;67.97;;;;;;;-0.87;90.89;96706.95;1801732;78;21495;-57
2021/12/10 06:05:38;;;;;;;138.12;62.38;;;;;;;-0.89;90.86;96721.02;1793673;77;21080;-59
2021/12/10 06:08:04;;;;;;;127.62;59.60;;;;;;;-0.90;90.83;96715.41;1802292;78;21006;-58
2021/12/10 06:10:30;;;;;;;118.85;50.92;;;;;;;-0.91;90.82;96717.27;1755732;76;21545;-58
2021/12/10 06:12:56;;;;;;;122.55;50.55;;;;;;;-0.94;90.81;96719.08;1752070;81;21559;-57
2021/12/10 06:15:23;;;;;;;115.22;53.50;;;;;;;-0.94;91.63;96727.55;1771633;79;20926;-57
2021/12/10 06:17:49;;;;;;;120.20;54.63;;;;;;;-0.89;91.44;96732.98;1771077;79;20953;-58
2021/12/10 06:20:20;;;;;;;121.05;54.13;;;;;;;-0.88;91.48;96734.59;1766630;79;21148;-57
2021/12/10 06:22:46;;;;;;;119.87;51.95;;;;;;;-0.84;91.75;96736.27;1768165;80;21428;-57
2021/12/10 06:25:12;;;;;;;139.75;68.83;;;;;;;-0.77;91.59;96738.23;1776198;80;21545;-56
2021/12/10 06:27:44;;;;;;;131.43;59.98;;;;;;;-0.73;91.48;96735.40;1768783;80;22790;-56
2021/12/10 06:30:07;;;;;;;132.47;58.98;;;;;;;-0.69;91.51;96741.84;1769963;80;21450;-57
2021/12/10 06:32:33;;;;;;;121.28;55.00;;;;;;;-0.67;91.54;96734.45;1766022;80;21511;-57
2021/12/10 06:34:59;;;;;;;136.92;57.80;;;;;;;-0.71;91.27;96733.30;1755549;81;20901;-57
2021/12/10 06:37:25;;;;;;;132.95;63.33;;;;;;;-0.77;91.08;96732.42;1749720;80;21773;-57
2021/12/10 06:39:51;;;;;;;127.25;59.18;;;;;;;-0.83;91.56;96733.37;1760342;81;20870;-57
2021/12/10 06:42:17;;;;;;;132.87;59.77;;;;;;;-0.81;91.38;96732.59;1763093;80;21554;-57
2021/12/10 06:44:42;;;;;;;133.60;63.05;;;;;;;-0.78;91.26;96736.10;1784064;78;20898;-57
2021/12/10 06:47:09;;;;;;;121.37;58.17;;;;;;;-0.70;91.32;96733.58;1797526;79;21656;-57
2021/12/10 06:49:35;;;;;;;126.40;57.15;;;;;;;-0.76;91.47;96727.38;1798769;78;21057;-57
2021/12/10 06:52:01;;;;;;;176.95;77.65;;;;;;;-0.76;91.08;96729.23;1789037;78;20834;-57
2021/12/10 06:54:30;;;;;;;162.37;71.92;;;;;;;-0.82;90.97;96720.88;1806887;78;20961;-57
2021/12/10 06:56:57;;;;;;;151.00;70.05;;;;;;;-0.83;91.20;96720.06;1801781;79;21004;-58
2021/12/10 06:59:25;;;;;;;159.20;67.60;;;;;;;-0.81;91.13;96728.61;1771258;79;20989;-57
2021/12/10 07:01:51;;;;;;;105.07;51.37;;;;;;;-0.82;90.98;96731.52;1809659;78;21394;-58
2021/12/10 07:04:17;;;;;;;142.03;63.68;;;;;;;-0.83;90.96;96737.88;1776834;79;21591;-57
2021/12/10 07:06:45;;;;;;;146.47;66.53;;;;;;;-0.85;90.89;96730.14;1759952;79;20870;-57
2021/12/10 07:09:15;;;;;;;128.75;57.13;;;;;;;-0.86;90.82;96736.48;1759477;81;21103;-57
2021/12/10 07:11:41;;;;;;;153.30;69.58;;;;;;;-0.92;90.43;96740.92;1766856;80;21005;-57
2021/12/10 07:14:07;;;;;;;186.55;82.12;;;;;;;-1.07;90.36;96735.83;1752598;80;21569;-57
2021/12/10 07:16:33;;;;;;;269.25;126.67;;;;;;;-1.17;90.09;96733.78;1767797;80;20870;-58
2021/12/10 07:19:00;;;;;;;320.42;145.38;;;;;;;-1.25;90.31;96734.16;1789525;78;21004;-57
2021/12/10 07:21:26;;;;;;;224.85;111.62;;;;;;;-1.25;90.45;96736.29;1796815;78;21536;-56
2021/12/10 07:23:53;;;;;;;231.05;112.88;;;;;;;-1.22;90.34;96738.47;1792975;79;21083;-57
2021/12/10 07:26:19;;;;;;;254.57;119.82;;;;;;;-1.16;90.59;96736.20;1774369;80;21035;-57
2021/12/10 07:28:45;;;;;;;232.90;111.90;;;;;;;-1.15;90.50;96729.84;1783160;79;20930;-57
2021/12/10 07:31:13;;;;;;;202.13;90.38;;;;;;;-1.06;90.59;96733.45;1786904;78;21107;-57
2021/12/10 07:33:39;;;;;;;173.57;81.50;;;;;;;-0.96;90.61;96735.77;1791209;78;21031;-57
2021/12/10 07:36:05;;;;;;;248.00;107.60;;;;;;;-0.95;91.07;96736.05;1791385;78;20938;-57
2021/12/10 07:38:31;;;;;;;248.75;107.52;;;;;;;-0.93;91.58;96741.97;1789170;79;21092;-57
2021/12/10 07:40:57;;;;;;;239.70;105.90;;;;;;;-0.88;90.88;96741.24;1762693;80;20881;-57
2021/12/10 07:43:22;;;;;;;231.32;104.25;;;;;;;-0.90;90.53;96734.84;1762683;80;21016;-56
2021/12/10 07:45:51;;;;;;;330.00;137.72;;;;;;;-0.93;90.42;96741.16;1759179;80;21026;-57
2021/12/10 07:48:19;;;;;;;206.20;99.92;;;;;;;-0.89;90.63;96749.74;1749809;80;21503;-57
2021/12/10 07:50:53;;;;;;;194.90;95.60;;;;;;;-0.90;91.18;96750.80;1743903;81;21183;-57
2021/12/10 07:53:20;;;;;;;186.45;88.50;;;;;;;-0.94;91.59;96752.81;1749185;79;21021;-57
2021/12/10 07:55:46;;;;;;;182.50;88.15;;;;;;;-0.95;90.62;96757.86;1772344;80;20953;-56
2021/12/10 07:58:12;;;;;;;194.37;98.52;;;;;;;-1.02;90.63;96762.53;1770401;80;21076;-57
2021/12/10 08:00:40;;;;;;;172.45;84.15;;;;;;;-1.05;91.25;96758.99;1780973;79;21068;-57
2021/12/10 08:03:06;;;;;;;242.90;121.75;;;;;;;-1.01;91.04;96753.50;1756469;80;21098;-56
2021/12/10 08:05:33;;;;;;;184.67;80.83;;;;;;;-1.01;91.55;96753.50;1773512;79;32202;-57
2021/12/10 08:07:59;;;;;;;236.12;111.17;;;;;;;-0.95;91.13;96766.64;1731770;80;23513;-57
2021/12/10 08:10:25;;;;;;;273.10;132.20;;;;;;;-0.85;90.92;96764.72;1730266;81;21096;-57
2021/12/10 08:12:51;;;;;;;260.02;131.32;;;;;;;-0.79;90.66;96769.07;1730427;82;21440;-56
2021/12/10 08:15:17;;;;;;;279.45;131.03;;;;;;;-0.77;90.55;96771.48;1732003;82;21143;-57
2021/12/10 08:17:43;;;;;;;283.23;143.87;;;;;;;-0.76;90.50;96774.46;1736767;81;21023;-57
2021/12/10 08:20:12;;;;;;;287.05;134.22;;;;;;;-0.77;90.49;96776.81;1733338;81;20974;-57
2021/12/10 08:22:39;;;;;;;242.57;120.90;;;;;;;-0.72;90.47;96779.58;1744159;81;21507;-57
2021/12/10 08:25:05;;;;;;;408.70;165.22;;;;;;;-0.76;90.30;96781.92;1765064;79;20966;-57
2021/12/10 08:27:32;;;;;;;259.23;124.33;;;;;;;-0.77;90.11;96780.30;1767344;80;21673;-57
2021/12/10 08:30:03;;;;;;;219.87;105.43;;;;;;;-0.79;89.94;96782.38;1754147;79;20980;-57
2021/12/10 08:32:25;;;;;;;188.00;95.25;;;;;;;-0.86;90.02;96775.85;1725667;80;20980;-57
2021/12/10 08:34:51;;;;;;;173.35;84.70;;;;;;;-0.84;90.15;96782.81;1761638;79;21040;-57
2021/12/10 08:37:17;;;;;;;173.80;85.67;;;;;;;-0.86;90.08;96775.85;1765938;79;20902;-56
2021/12/10 08:39:43;;;;;;;192.18;99.40;;;;;;;-0.93;89.74;96777.06;1775814;79;21145;-57
2021/12/10 08:42:09;;;;;;;220.55;107.35;;;;;;;-0.95;89.95;96775.14;1739560;81;20890;-57
2021/12/10 08:44:36;;;;;;;204.23;101.62;;;;;;;-0.87;90.21;96773.44;1758103;79;20945;-57
2021/12/10 08:47:02;;;;;;;186.80;91.87;;;;;;;-0.82;90.07;96772.22;1759723;81;21006;-57
2021/12/10 08:49:28;;;;;;;193.28;91.35;;;;;;;-0.85;89.77;96771.38;1764728;80;20998;-57
2021/12/10 08:51:56;;;;;;;255.87;137.07;;;;;;;-0.90;89.90;96769.93;1769864;80;21899;-57
2021/12/10 08:54:26;;;;;;;272.50;135.07;;;;;;;-0.84;90.18;96774.31;1728443;81;21016;-57
2021/12/10 08:56:52;;;;;;;262.93;129.15;;;;;;;-0.81;89.88;96771.69;1779411;79;20986;-56
2021/12/10 08:59:21;;;;;;;298.40;136.65;;;;;;;-0.87;90.08;96776.09;1774682;79;21091;-57
2021/12/10 09:01:46;;;;;;;257.37;110.60;;;;;;;-0.81;90.24;96775.69;1747129;80;21058;-57
2021/12/10 09:04:13;;;;;;;194.20;94.47;;;;;;;-0.76;90.43;96771.80;1756468;80;21833;-57
2021/12/10 09:06:43;;;;;;;234.70;116.10;;;;;;;-0.69;90.57;96768.45;1724635;81;21029;-57
2021/12/10 09:09:11;;;;;;;243.30;120.62;;;;;;;-0.58;90.51;96774.27;1731570;80;21458;-57
2021/12/10 09:11:38;;;;;;;238.82;120.42;;;;;;;-0.44;90.49;96774.22;1753952;80;21031;-57
2021/12/10 09:14:06;;;;;;;237.02;121.28;;;;;;;-0.22;90.37;96773.54;1757805;80;21403;-57
2021/12/10 09:16:32;;;;;;;214.65;110.68;;;;;;;-0.05;90.47;96767.17;1766531;80;21095;-57
2021/12/10 09:19:01;;;;;;;258.25;132.05;;;;;;;0.07;90.15;96767.60;1736333;81;20964;-57
2021/12/10 09:21:28;;;;;;;233.97;122.62;;;;;;;0.06;89.89;96762.80;1737932;82;20989;-57
2021/12/10 09:24:00;;;;;;;215.32;104.80;;;;;;;0.08;90.01;96758.55;1762318;81;21064;-57
2021/12/10 09:26:27;;;;;;;227.22;114.82;;;;;;;0.18;89.84;96754.21;1757764;79;21363;-58
2021/12/10 09:28:51;;;;;;;143.23;70.17;;;;;;;0.20;89.93;96762.76;1738683;82;22004;-58
2021/12/10 09:31:17;;;;;;;222.73;99.25;;;;;;;0.22;89.76;96751.33;1731496;81;20928;-58
2021/12/10 09:33:43;;;;;;;271.75;126.97;;;;;;;0.34;90.00;96757.08;1754234;79;21040;-57
2021/12/10 09:36:09;;;;;;;251.02;136.40;;;;;;;0.43;89.84;96751.10;1758672;80;21608;-58
2021/12/10 09:38:35;;;;;;;219.35;101.92;;;;;;;0.44;89.42;96744.72;1749580;80;20866;-58
2021/12/10 09:41:04;;;;;;;270.15;118.08;;;;;;;0.54;89.43;96744.84;1760989;80;21843;-57
2021/12/10 09:43:31;;;;;;;208.05;108.78;;;;;;;0.55;89.41;96737.66;1761949;80;21017;-57
2021/12/10 09:45:57;;;;;;;170.80;83.20;;;;;;;0.60;89.32;96743.06;1762320;80;22035;-58
2021/12/10 09:48:23;;;;;;;49.38;27.13;;;;;;;0.69;89.74;96747.44;1757622;79;21023;-58
2021/12/10 09:51:03;;;;;;;83.70;44.95;;;;;;;0.77;89.60;96743.81;1759706;80;21029;-57
2021/12/10 09:53:30;;;;;;;74.12;38.08;;;;;;;0.83;89.01;96740.14;1760941;80;22319;-58
2021/12/10 09:55:57;;;;;;;119.25;54.55;;;;;;;0.92;88.83;96737.03;1733309;81;21099;-57
2021/12/10 09:58:25;;;;;;;93.12;45.05;;;;;;;1.02;89.28;96733.95;1738604;81;20967;-57
2021/12/10 10:00:58;;;;;;;95.67;53.47;;;;;;;1.19;89.55;96730.39;1701325;82;21572;-57
2021/12/10 10:03:28;;;;;;;79.82;40.40;;;;;;;1.31;88.57;96727.06;1728358;81;21452;-57
2021/12/10 10:05:55;;;;;;;66.90;36.93;;;;;;;1.34;85.96;96725.22;1761983;80;21005;-57
2021/12/10 10:08:24;;;;;;;79.22;38.60;;;;;;;1.39;87.43;96726.08;1754583;80;20973;-58
2021/12/10 10:10:52;;;;;;;84.40;36.35;;;;;;;1.47;87.79;96729.36;1733086;80;21080;-57
2021/12/10 10:13:27;;;;;;;80.57;35.33;;;;;;;1.54;87.42;96729.94;1730399;82;21013;-58
2021/12/10 10:15:56;;;;;;;113.77;46.90;;;;;;;1.54;87.30;96730.77;1760646;80;21402;-58
2021/12/10 10:18:22;;;;;;;;;;;;;;;1.61;87.44;96727.34;1761032;80;22262;-57
2021/12/10 10:20:51;;;;;;;43.63;22.62;;;;;;;1.73;87.42;96723.72;1752902;80;20257;-57
2021/12/10 10:23:17;;;;;;;747.15;263.65;;;;;;;1.80;87.13;96730.46;1761354;80;21080;-57
2021/12/10 10:25:47;;;;;;;218.70;99.22;;;;;;;1.89;86.67;96732.13;1751279;80;21059;-57
2021/12/10 10:28:13;;;;;;;80.07;40.58;;;;;;;1.98;86.66;96729.27;1764747;80;21037;-57
2021/12/10 10:30:56;;;;;;;58.85;27.37;;;;;;;2.04;86.37;96727.41;1740119;81;21068;-57
2021/12/10 10:33:19;;;;;;;87.08;34.85;;;;;;;2.12;85.95;96732.28;1730771;81;21217;-58
2021/12/10 10:35:49;;;;;;;79.72;32.38;;;;;;;2.14;85.83;96726.98;1730490;81;21068;-58
2021/12/10 10:38:16;;;;;;;116.42;43.48;;;;;;;2.15;85.23;96724.58;1758386;80;21417;-57
2021/12/10 10:40:47;;;;;;;72.92;32.95;;;;;;;2.18;85.49;96721.38;1745663;80;21397;-57
2021/12/10 10:43:13;;;;;;;215.00;72.25;;;;;;;2.15;85.14;96729.12;1749717;80;21449;-57
2021/12/10 10:45:42;;;;;;;251.18;100.02;;;;;;;2.19;85.44;96729.66;1746549;80;20884;-57
2021/12/10 10:48:09;;;;;;;;;;;;;;;2.21;85.13;96727.53;1750345;80;20945;-58
2021/12/10 10:50:40;;;;;;;106.05;46.88;;;;;;;2.16;84.85;96730.72;1749931;80;20132;-58
2021/12/10 10:53:09;;;;;;;79.25;39.48;;;;;;;2.14;84.26;96724.84;1754647;80;21015;-56
2021/12/10 10:55:40;;;;;;;76.80;36.25;;;;;;;2.19;84.62;96720.84;1768534;80;21044;-57
2021/12/10 10:58:14;;;;;;;56.30;28.90;;;;;;;2.19;84.99;96718.17;1735493;81;21449;-57
2021/12/10 11:00:58;;;;;;;55.67;27.02;;;;;;;2.23;85.07;96706.72;1761310;80;21008;-57
2021/12/10 11:03:23;;;;;;;63.75;35.70;;;;;;;2.16;84.90;96715.49;1763195;80;21013;-57
2021/12/10 11:05:52;;;;;;;89.07;37.28;;;;;;;2.17;84.98;96717.63;1754493;80;21029;-57
2021/12/10 11:08:31;;;;;;;161.35;61.35;;;;;;;2.14;84.63;96720.30;1756976;79;21064;-58
2021/12/10 11:11:16;;;;;;;165.88;62.43;;;;;;;2.18;85.15;96720.04;1757432;79;21012;-57
2021/12/10 11:13:46;;;;;;;58.30;28.00;;;;;;;2.29;85.20;96719.56;1752093;80;21334;-58
2021/12/10 11:16:18;;;;;;;67.37;31.60;;;;;;;2.39;85.14;96719.62;1758878;79;21421;-57
2021/12/10 11:18:51;;;;;;;124.75;48.15;;;;;;;2.45;85.26;96722.61;1758095;79;21179;-58
2021/12/10 11:21:40;;;;;;;148.95;58.10;;;;;;;2.56;85.18;96716.77;1761572;80;21411;-58
2021/12/10 11:24:24;;;;;;;186.52;71.55;;;;;;;2.65;84.55;96719.76;1750095;79;21047;-58